Limeira, Brazil
Current Conditions -  °F | °C
As of 1:00 PM on Thursday 30 Oct 2014 (Local Time) from SBKP Reporting Station
Scattered Clouds Scattered Clouds  
Wind Chill: 90°   Ceiling: Unl
Heat Index: 90°   Visibility: 6mi
Dew Point: 55°   Wind: 13mph
Humidity: 31%   Direction: 360°N
Pressure: 29.88"   Gusts: NA
Location:  22.55°S, 47.4°W
Report Text: SBKP 301500Z 36011KT 300V050 9999 SCT040 32/13 Q1012
Loading
Personal Weather Stations






























Interactive Weather Map
Tropical Storm Tracking
New forecast layout! Learn more

10-Day Weather Forecast

Advertisements
Track Severe Weather on mobile